Time,TemperatureF,DewpointF,PressureIn,WindDirection,WindDirectionDegrees,WindSpeedMPH,WindSpeedGustMPH,Humidity,HourlyPrecipIn,Conditions,Clouds,dailyrainin,SoftwareType,DateUTC
2013-07-04 00:43:00,73.0,-99.9,-100.00,West,268,1.0,3.0,-999,-99.99,,,-99.99,,2013-07-04 06:43:00,
2013-07-04 02:20:00,69.0,-99.9,-100.00,ESE,111,5.0,5.0,-999,-99.99,,,-99.99,,2013-07-04 08:20:00,
2013-07-04 03:11:00,69.0,-99.9,-100.00,ESE,111,5.0,5.0,-999,-99.99,,,-99.99,,2013-07-04 09:11:00,
2013-07-04 03:40:00,69.0,-99.9,-100.00,WNW,302,2.0,2.0,-999,-99.99,,,-99.99,,2013-07-04 09:40:00,
2013-07-04 04:34:00,69.0,-99.9,-100.00,WNW,302,2.0,2.0,-999,-99.99,,,-99.99,,2013-07-04 10:34:00,
2013-07-04 05:10:00,68.0,-99.9,-100.00,North,0,0.0,1.0,-999,-99.99,,,-99.99,,2013-07-04 11:10:00,
2013-07-04 05:53:00,68.0,-99.9,-100.00,North,0,0.0,1.0,-999,-99.99,,,-99.99,,2013-07-04 11:53:00,
2013-07-04 06:02:00,68.0,-99.9,-100.00,North,0,0.0,1.0,-999,-99.99,,,-99.99,,2013-07-04 12:02:00,
2013-07-04 06:43:00,68.0,-99.9,-100.00,West,267,2.0,2.0,-999,-99.99,,,-99.99,,2013-07-04 12:43:00,
2013-07-04 06:50:00,66.0,-99.9,-100.00,East,100,2.0,4.0,-999,-99.99,,,-99.99,,2013-07-04 12:50:00,
2013-07-04 06:52:00,68.0,-99.9,-100.00,West,267,2.0,2.0,-999,-99.99,,,-99.99,,2013-07-04 12:52:00,
2013-07-04 07:12:00,66.0,-99.9,-100.00,East,90,1.0,1.0,-999,-99.99,,,-99.99,,2013-07-04 13:12:00,
2013-07-04 07:20:00,68.0,-99.9,-100.00,SE,127,1.0,1.0,-999,-99.99,,,-99.99,,2013-07-04 13:20:00,
2013-07-04 07:43:00,66.0,-99.9,-100.00,East,100,2.0,4.0,-999,-99.99,,,-99.99,,2013-07-04 13:43:00,
2013-07-04 08:12:00,68.0,-99.9,-100.00,SE,127,1.0,1.0,-999,-99.99,,,-99.99,,2013-07-04 14:12:00,
2013-07-04 08:30:00,74.0,-99.9,-100.00,NNW,336,1.0,1.0,-999,-99.99,,,-99.99,,2013-07-04 14:30:00,
2013-07-04 09:11:00,74.0,-99.9,-100.00,NNW,336,1.0,1.0,-999,-99.99,,,-99.99,,2013-07-04 15:11:00,
2013-07-04 09:23:00,74.0,-99.9,-100.00,NNW,336,1.0,1.0,-999,-99.99,,,-99.99,,2013-07-04 15:23:00,
2013-07-04 10:11:00,76.0,-99.9,-100.00,North,351,0.0,2.0,-999,-99.99,,,-99.99,,2013-07-04 16:11:00,
2013-07-04 10:22:00,77.0,-99.9,-100.00,West,277,3.0,3.0,-999,-99.99,,,-99.99,,2013-07-04 16:22:00,
2013-07-04 10:43:00,77.0,-99.9,-100.00,ESE,103,1.0,2.0,-999,-99.99,,,-99.99,,2013-07-04 16:43:00,
2013-07-04 11:00:00,83.0,-99.9,-100.00,East,94,0.0,3.0,-999,-99.99,,,-99.99,,2013-07-04 17:00:00,
2013-07-04 11:53:00,83.0,-99.9,-100.00,East,94,0.0,3.0,-999,-99.99,,,-99.99,,2013-07-04 17:53:00,
2013-07-04 14:12:00,90.0,-99.9,-100.00,ESE,115,3.0,7.0,-999,-99.99,,,-99.99,,2013-07-04 20:12:00,
2013-07-04 15:22:00,90.0,-99.9,-100.00,ENE,70,2.0,4.0,-999,-99.99,,,-99.99,,2013-07-04 21:22:00,
2013-07-04 15:32:00,90.0,-99.9,-100.00,ENE,70,2.0,4.0,-999,-99.99,,,-99.99,,2013-07-04 21:32:00,
2013-07-04 16:12:00,93.0,-99.9,-100.00,NNE,25,1.0,3.0,-999,-99.99,,,-99.99,,2013-07-04 22:12:00,
2013-07-04 16:22:00,93.0,-99.9,-100.00,NNE,25,1.0,3.0,-999,-99.99,,,-99.99,,2013-07-04 22:22:00,
2013-07-04 16:40:00,93.0,-99.9,-100.00,ENE,78,0.0,3.0,-999,-99.99,,,-99.99,,2013-07-04 22:40:00,
2013-07-04 17:34:00,93.0,-99.9,-100.00,ENE,78,0.0,3.0,-999,-99.99,,,-99.99,,2013-07-04 23:34:00,
2013-07-04 17:52:00,91.0,-99.9,-100.00,West,278,5.0,6.0,-999,-99.99,,,-99.99,,2013-07-04 23:52:00,
2013-07-04 18:02:00,91.0,-99.9,-100.00,West,278,5.0,6.0,-999,-99.99,,,-99.99,,2013-07-05 00:02:00,
2013-07-04 18:12:00,91.0,-99.9,-100.00,West,278,5.0,6.0,-999,-99.99,,,-99.99,,2013-07-05 00:12:00,
2013-07-04 20:53:00,80.0,-99.9,-100.00,NNW,348,0.0,2.0,-999,-99.99,,,-99.99,,2013-07-05 02:53:00,
2013-07-04 21:02:00,79.0,-99.9,-100.00,North,7,0.0,2.0,-999,-99.99,,,-99.99,,2013-07-05 03:02:00,
2013-07-04 21:11:00,79.0,-99.9,-100.00,North,7,0.0,2.0,-999,-99.99,,,-99.99,,2013-07-05 03:11:00,
2013-07-04 21:20:00,79.0,-99.9,-100.00,West,278,0.0,2.0,-999,-99.99,,,-99.99,,2013-07-05 03:20:00,
2013-07-04 21:22:00,79.0,-99.9,-100.00,North,7,0.0,2.0,-999,-99.99,,,-99.99,,2013-07-05 03:22:00,
2013-07-04 21:42:00,80.0,-99.9,-100.00,East,84,1.0,1.0,-999,-99.99,,,-99.99,,2013-07-05 03:42:00,
2013-07-04 22:12:00,79.0,-99.9,-100.00,West,278,0.0,2.0,-999,-99.99,,,-99.99,,2013-07-05 04:12:00,